Time;durP1;ratioP1;P1;durP2;ratioP2;P2;SDS_P1;SDS_P2;PMS_P1;PMS_P2;Temp;Humidity;BMP_temperature;BMP_pressure;BME280_temperature;BME280_humidity;BME280_pressure;Samples;Min_cycle;Max_cycle;Signal;HPM_P1;HPM_P2
2023/03/07 00:02:25;;;;;;;;;;;;;;;27.30;55.64;101353.53;5053002;28;66688;-40
2023/03/07 00:04:55;;;;;;;;;;;;;;;27.34;55.17;101359.38;5055954;28;69682;-39
2023/03/07 00:07:26;;;;;;;;;;;;;;;27.32;55.73;101361.41;5047112;28;66598;-39
2023/03/07 00:09:59;;;;;;;;;;;;;;;27.32;55.84;101364.94;5043471;28;70439;-39
2023/03/07 00:12:29;;;;;;;;;;;;;;;27.32;54.74;101364.94;5050936;28;66296;-37
2023/03/07 00:15:00;;;;;;;;;;;;;;;27.35;55.14;101363.75;5047750;27;70616;-38
2023/03/07 00:17:30;;;;;;;;;;;;;;;27.40;55.60;101361.34;5048385;28;65877;-38
2023/03/07 00:20:00;;;;;;;;;;;;;;;27.45;56.34;101372.41;5047521;28;69846;-38
2023/03/07 00:22:30;;;;;;;;;;;;;;;27.49;56.60;101373.69;5047863;28;67300;-37
2023/03/07 00:25:01;;;;;;;;;;;;;;;27.53;56.25;101374.16;5050915;27;69675;-38
2023/03/07 00:27:33;;;;;;;;;;;;;;;27.54;55.84;101370.44;5050266;28;66957;-38
2023/03/07 00:30:04;;;;;;;;;;;;;;;27.58;56.31;101383.38;5056512;28;70028;-38
2023/03/07 00:32:34;;;;;;;;;;;;;;;27.62;55.95;101375.75;5048553;27;66792;-37
2023/03/07 00:35:05;;;;;;;;;;;;;;;27.65;56.31;101385.31;5056812;28;70211;-39
2023/03/07 00:37:36;;;;;;;;;;;;;;;27.67;55.66;101385.97;5047006;28;65396;-37
2023/03/07 00:40:08;;;;;;;;;;;;;;;27.70;55.98;101393.69;5084690;27;68935;-37
2023/03/07 00:42:39;;;;;;;;;;;;;;;27.73;55.94;101396.00;5045367;28;66817;-37
2023/03/07 00:45:09;;;;;;;;;;;;;;;27.75;55.91;101402.03;5034063;28;69714;-37
2023/03/07 00:47:40;;;;;;;;;;;;;;;27.79;55.70;101400.63;5055991;28;67008;-38
2023/03/07 00:50:10;;;;;;;;;;;;;;;27.82;56.45;101400.28;5048507;28;70270;-38
2023/03/07 00:52:40;;;;;;;;;;;;;;;27.81;55.59;101404.84;5054468;28;66968;-37
2023/03/07 00:55:11;;;;;;;;;;;;;;;27.83;55.17;101408.22;5045952;28;70331;-37
2023/03/07 00:57:41;;;;;;;;;;;;;;;27.85;55.49;101399.91;5050440;28;66467;-37
2023/03/07 01:00:15;;;;;;;;;;;;;;;27.87;55.30;101408.66;5077959;27;63634;-38
2023/03/07 01:02:45;;;;;;;;;;;;;;;27.90;55.19;101405.59;5053832;28;66542;-38
2023/03/07 01:05:15;;;;;;;;;;;;;;;27.92;55.31;101411.63;5050832;28;69189;-38
2023/03/07 01:07:46;;;;;;;;;;;;;;;27.94;55.39;101414.97;5041640;28;66640;-38
2023/03/07 01:10:17;;;;;;;;;;;;;;;27.96;55.30;101420.19;5058653;28;70413;-38
2023/03/07 01:12:47;;;;;;;;;;;;;;;27.97;54.89;101424.53;5051634;27;68192;-37
2023/03/07 01:15:18;;;;;;;;;;;;;;;27.98;54.63;101416.28;5054600;28;69091;-38
2023/03/07 01:17:48;;;;;;;;;;;;;;;28.00;54.89;101421.47;5044744;28;67076;-39
2023/03/07 01:20:18;;;;;;;;;;;;;;;28.02;54.55;101428.34;5051455;28;69964;-38
2023/03/07 01:22:49;;;;;;;;;;;;;;;28.02;54.67;101417.56;5087976;27;66016;-37
2023/03/07 01:25:19;;;;;;;;;;;;;;;28.05;54.34;101417.22;5059341;28;70472;-37
2023/03/07 01:27:56;;;;;;;;;;;;;;;28.06;54.59;101424.25;5059690;27;67240;-37
2023/03/07 01:30:29;;;;;;;;;;;;;;;28.08;54.16;101426.75;5046391;28;70480;-38
2023/03/07 01:33:00;;;;;;;;;;;;;;;28.09;54.30;101427.63;5045354;28;66630;-37
2023/03/07 01:35:35;;;;;;;;;;;;;;;28.11;54.14;101430.94;5051323;28;69221;-37
2023/03/07 01:38:06;;;;;;;;;;;;;;;28.13;53.92;101437.81;5053824;28;66524;-38
2023/03/07 01:40:38;;;;;;;;;;;;;;;28.14;54.19;101435.94;5066486;27;69395;-38
2023/03/07 01:43:22;;;;;;;;;;;;;;;28.16;53.79;101442.84;5058559;27;66077;-37
2023/03/07 01:46:20;;;;;;;;;;;;;;;28.17;54.09;101436.44;5063942;27;70407;-39
2023/03/07 01:48:57;;;;;;;;;;;;;;;28.20;53.88;101440.63;5046917;28;65649;-37
2023/03/07 01:51:30;;;;;;;;;;;;;;;28.22;53.67;101439.41;5084749;27;70382;-47
2023/03/07 01:54:04;;;;;;;;;;;;;;;28.25;53.62;101446.25;5048833;28;66496;-38
2023/03/07 01:56:36;;;;;;;;;;;;;;;28.25;53.65;101444.41;5085746;27;70133;-39
2023/03/07 01:59:07;;;;;;;;;;;;;;;28.27;53.17;101444.22;5042442;28;66248;-38
2023/03/07 02:01:38;;;;;;;;;;;;;;;28.29;53.27;101439.47;5049171;28;69542;-40
2023/03/07 02:04:15;;;;;;;;;;;;;;;28.31;53.11;101447.38;5044079;28;67321;-37
2023/03/07 02:06:45;;;;;;;;;;;;;;;28.32;53.08;101449.88;5078982;27;70527;-38
2023/03/07 02:09:18;;;;;;;;;;;;;;;28.34;52.94;101447.84;5079572;27;66953;-38
2023/03/07 02:11:48;;;;;;;;;;;;;;;28.36;52.81;101448.50;5050668;28;70748;-40
2023/03/07 02:14:19;;;;;;;;;;;;;;;28.38;52.72;101451.81;5056353;28;66381;-37
2023/03/07 02:16:50;;;;;;;;;;;;;;;28.40;53.10;101452.47;5031023;28;70580;-39
2023/03/07 02:19:36;;;;;;;;;;;;;;;28.43;52.68;101448.59;5081293;27;66275;-37
2023/03/07 02:22:09;;;;;;;;;;;;;;;28.44;52.56;101452.94;5050065;28;70577;-37
2023/03/07 02:25:01;;;;;;;;;;;;;;;28.46;52.49;101457.13;5056625;28;65675;-37
2023/03/07 02:27:33;;;;;;;;;;;;;;;28.48;52.36;101457.78;5074552;27;69338;-38
2023/03/07 02:30:05;;;;;;;;;;;;;;;28.50;52.80;101463.84;5037969;28;65230;-38
2023/03/07 02:32:36;;;;;;;;;;;;;;;28.51;52.60;101454.69;5057810;28;71275;-37
2023/03/07 02:35:14;;;;;;;;;;;;;;;28.56;52.25;101459.53;5050264;27;66105;-37
2023/03/07 02:37:48;;;;;;;;;;;;;;;28.57;52.60;101463.06;5051460;28;69571;-38
2023/03/07 02:40:22;;;;;;;;;;;;;;;28.59;52.60;101455.63;5053513;28;67649;-38
2023/03/07 02:42:55;;;;;;;;;;;;;;;28.62;52.45;101447.16;5038018;28;70276;-38
2023/03/07 02:45:26;;;;;;;;;;;;;;;28.64;52.37;101454.03;5055872;28;66461;-38
2023/03/07 02:47:56;;;;;;;;;;;;;;;28.65;51.95;101447.59;5047943;28;70155;-38
2023/03/07 02:50:29;;;;;;;;;;;;;;;28.69;52.40;101450.72;5062858;27;66344;-38
2023/03/07 02:52:59;;;;;;;;;;;;;;;28.71;52.38;101448.69;5068364;27;70856;-38
2023/03/07 02:55:30;;;;;;;;;;;;;;;28.73;51.84;101438.53;5053127;28;67022;-37
2023/03/07 02:58:03;;;;;;;;;;;;;;;28.75;52.24;101444.56;5068431;27;69636;-37
2023/03/07 03:00:34;;;;;;;;;;;;;;;28.78;52.17;101438.81;5049238;28;66624;-37
2023/03/07 03:03:04;;;;;;;;;;;;;;;28.80;52.12;101447.53;5065439;28;71385;-38
2023/03/07 03:05:35;;;;;;;;;;;;;;;28.82;51.97;101434.66;5064212;27;66368;-39
2023/03/07 03:08:05;;;;;;;;;;;;;;;28.84;51.94;101438.03;5051038;28;69708;-39
2023/03/07 03:10:35;;;;;;;;;;;;;;;28.88;51.93;101427.66;5052171;28;65922;-38
2023/03/07 03:13:06;;;;;;;;;;;;;;;28.89;51.67;101430.19;5064166;27;69665;-37
2023/03/07 03:15:38;;;;;;;;;;;;;;;28.92;51.39;101439.75;5053259;28;67131;-39
2023/03/07 03:18:08;;;;;;;;;;;;;;;28.93;51.28;101426.03;5044830;28;70346;-39
2023/03/07 03:20:39;;;;;;;;;;;;;;;28.96;51.59;101425.66;5046722;28;66262;-38
2023/03/07 03:23:11;;;;;;;;;;;;;;;28.99;51.84;101418.19;5044402;28;70309;-39
2023/03/07 03:25:41;;;;;;;;;;;;;;;29.01;51.06;101416.97;5056550;28;65844;-37
2023/03/07 03:28:12;;;;;;;;;;;;;;;29.04;51.15;101419.31;5052902;28;69757;-37
2023/03/07 03:30:42;;;;;;;;;;;;;;;29.06;51.40;101414.56;5047091;28;66842;-37
2023/03/07 03:33:13;;;;;;;;;;;;;;;29.08;51.46;101417.88;5041996;28;69451;-38
2023/03/07 03:35:46;;;;;;;;;;;;;;;29.12;50.93;101407.53;5049380;28;67275;-39
2023/03/07 03:38:17;;;;;;;;;;;;;;;29.13;50.94;101406.50;5045902;28;70642;-38
2023/03/07 03:40:47;;;;;;;;;;;;;;;29.16;51.18;101398.00;5047311;28;65771;-38
2023/03/07 03:43:18;;;;;;;;;;;;;;;29.19;51.02;101408.41;5039291;28;68284;-37
2023/03/07 03:45:55;;;;;;;;;;;;;;;29.22;51.10;101399.91;5056129;27;66690;-39
2023/03/07 03:48:28;;;;;;;;;;;;;;;29.24;50.82;101395.16;5083837;27;70107;-38
2023/03/07 03:51:16;;;;;;;;;;;;;;;29.26;51.02;101393.09;5065312;28;66089;-38
2023/03/07 03:53:46;;;;;;;;;;;;;;;29.29;50.41;101392.69;5059012;27;70576;-39
2023/03/07 03:56:20;;;;;;;;;;;;;;;29.32;50.87;101394.19;5050595;27;64945;-38
2023/03/07 03:58:51;;;;;;;;;;;;;;;29.34;50.75;101384.84;5049460;28;69888;-38
2023/03/07 04:01:24;;;;;;;;;;;;;;;29.37;50.41;101379.03;5049672;28;65526;-38
2023/03/07 04:03:57;;;;;;;;;;;;;;;29.39;50.65;101371.56;5057019;28;70892;-38
2023/03/07 04:06:29;;;;;;;;;;;;;;;29.42;50.62;101369.50;5076222;27;66327;-39
2023/03/07 04:08:59;;;;;;;;;;;;;;;29.45;50.03;101363.69;5054889;28;70476;-38
2023/03/07 04:11:30;;;;;;;;;;;;;;;29.47;50.11;101361.63;5050172;28;66061;-38
2023/03/07 04:14:00;;;;;;;;;;;;;;;29.50;50.36;101350.41;5050795;28;69923;-38
2023/03/07 04:16:31;;;;;;;;;;;;;;;29.53;49.96;101358.13;5050742;27;65785;-38
2023/03/07 04:19:01;;;;;;;;;;;;;;;29.55;49.79;101353.34;5047689;28;69790;-38
2023/03/07 04:21:32;;;;;;;;;;;;;;;29.56;49.80;101347.75;5080510;27;65859;-37
2023/03/07 04:24:02;;;;;;;;;;;;;;;29.59;50.26;101339.25;5053510;28;70796;-38
2023/03/07 04:26:37;;;;;;;;;;;;;;;29.62;50.19;101338.00;5057053;28;65666;-38
2023/03/07 04:29:07;;;;;;;;;;;;;;;29.65;50.21;101331.41;5048911;27;68913;-38
2023/03/07 04:31:43;;;;;;;;;;;;;;;29.68;50.13;101336.41;5083302;27;67027;-37
2023/03/07 04:34:13;;;;;;;;;;;;;;;29.70;49.67;101324.34;5045626;28;70214;-38
2023/03/07 04:36:44;;;;;;;;;;;;;;;29.71;49.43;101323.31;5057131;28;66657;-38
2023/03/07 04:39:15;;;;;;;;;;;;;;;29.73;49.60;101318.53;5083750;27;69934;-37
2023/03/07 04:41:46;;;;;;;;;;;;;;;29.75;49.78;101311.03;5047050;27;66152;-38
2023/03/07 04:44:19;;;;;;;;;;;;;;;29.76;49.72;101296.50;5055209;27;70018;-37
2023/03/07 04:46:50;;;;;;;;;;;;;;;29.78;49.90;101294.44;5062946;28;66462;-38
2023/03/07 04:49:20;;;;;;;;;;;;;;;29.80;49.93;101292.34;5042301;28;69203;-38
2023/03/07 04:51:51;;;;;;;;;;;;;;;29.82;49.57;101286.75;5041079;28;65453;-38
2023/03/07 04:54:21;;;;;;;;;;;;;;;29.84;49.45;101292.78;5048816;28;69313;-38
2023/03/07 04:56:51;;;;;;;;;;;;;;;29.84;49.15;101282.78;5045117;28;66994;-38
2023/03/07 04:59:22;;;;;;;;;;;;;;;29.88;49.15;101279.69;5088294;27;69335;-37
2023/03/07 05:01:53;;;;;;;;;;;;;;;29.89;49.33;101278.63;5051646;28;66273;-37
2023/03/07 05:04:24;;;;;;;;;;;;;;;29.90;49.36;101277.63;5055644;28;69468;-37
2023/03/07 05:06:55;;;;;;;;;;;;;;;29.91;49.23;101277.41;5063630;28;66971;-38
2023/03/07 05:09:25;;;;;;;;;;;;;;;29.92;49.28;101273.66;5048866;28;70096;-37
2023/03/07 05:11:56;;;;;;;;;;;;;;;29.94;49.39;101259.94;5052513;28;66579;-37
2023/03/07 05:14:26;;;;;;;;;;;;;;;29.96;48.77;101263.28;5047662;28;70689;-38
2023/03/07 05:16:56;;;;;;;;;;;;;;;29.97;48.96;101254.94;5081931;27;66139;-38
2023/03/07 05:19:27;;;;;;;;;;;;;;;29.98;49.12;101253.09;5045570;27;69734;-39
2023/03/07 05:21:57;;;;;;;;;;;;;;;30.01;49.33;101255.38;5063790;27;65573;-38
2023/03/07 05:24:28;;;;;;;;;;;;;;;30.02;48.88;101251.63;5046903;28;69223;-37
2023/03/07 05:26:59;;;;;;;;;;;;;;;30.04;49.12;101244.13;5059466;28;65970;-37
2023/03/07 05:29:29;;;;;;;;;;;;;;;30.04;48.78;101233.31;5050391;27;70320;-38
2023/03/07 05:32:00;;;;;;;;;;;;;;;30.06;49.24;101228.50;5044573;28;66256;-38
2023/03/07 05:34:30;;;;;;;;;;;;;;;30.07;49.20;101227.50;5047401;28;69830;-38
2023/03/07 05:37:01;;;;;;;;;;;;;;;30.10;49.01;101220.84;5048102;28;65589;-38
2023/03/07 05:39:32;;;;;;;;;;;;;;;30.10;48.62;101210.84;5079558;27;68945;-38
2023/03/07 05:42:03;;;;;;;;;;;;;;;30.14;48.79;101217.50;5078658;27;66052;-38
2023/03/07 05:44:34;;;;;;;;;;;;;;;30.14;48.68;101206.66;5045731;28;70219;-37
2023/03/07 05:47:05;;;;;;;;;;;;;;;30.18;48.47;101207.94;5042649;28;65338;-37
2023/03/07 05:49:36;;;;;;;;;;;;;;;30.21;48.46;101203.97;5039165;28;69417;-38
2023/03/07 05:52:06;;;;;;;;;;;;;;;30.22;48.76;101202.97;5037743;27;66641;-39
2023/03/07 05:54:37;;;;;;;;;;;;;;;30.25;48.42;101192.53;5046292;28;69365;-38
2023/03/07 05:57:07;;;;;;;;;;;;;;;30.28;48.46;101186.75;5041301;27;66119;-38
2023/03/07 05:59:40;;;;;;;;;;;;;;;30.31;48.72;101176.53;5054122;28;70522;-38
2023/03/07 06:02:10;;;;;;;;;;;;;;;30.34;48.40;101178.81;5053695;27;67026;-37
2023/03/07 06:04:40;;;;;;;;;;;;;;;30.37;48.54;101172.97;5045252;27;69520;-39
2023/03/07 06:07:11;;;;;;;;;;;;;;;30.39;48.57;101165.47;5084103;27;65472;-38
2023/03/07 06:09:42;;;;;;;;;;;;;;;30.41;48.06;101172.34;5053191;28;70145;-38
2023/03/07 06:12:13;;;;;;;;;;;;;;;30.44;48.11;101168.41;5051745;28;65247;-39
2023/03/07 06:14:44;;;;;;;;;;;;;;;30.46;48.31;101160.91;5076292;27;69191;-38
2023/03/07 06:17:14;;;;;;;;;;;;;;;30.49;47.95;101163.19;5044869;27;66105;-38
2023/03/07 06:19:45;;;;;;;;;;;;;;;30.51;48.13;101158.41;5082177;27;70962;-38
2023/03/07 06:22:15;;;;;;;;;;;;;;;30.54;47.62;101152.56;5053118;28;66007;-38
2023/03/07 06:24:46;;;;;;;;;;;;;;;30.56;47.80;101153.16;5046526;28;70672;-38
2023/03/07 06:27:17;;;;;;;;;;;;;;;30.60;48.16;101154.41;5077726;27;66425;-39
2023/03/07 06:29:48;;;;;;;;;;;;;;;30.62;48.04;101146.91;5052355;28;69960;-37
2023/03/07 06:32:18;;;;;;;;;;;;;;;30.64;47.58;101142.09;5046830;28;66099;-40
2023/03/07 06:34:48;;;;;;;;;;;;;;;30.66;47.37;101140.03;5049986;28;69678;-38
2023/03/07 06:37:19;;;;;;;;;;;;;;;30.68;47.80;101137.94;5057669;27;67298;-39
2023/03/07 06:39:49;;;;;;;;;;;;;;;30.71;47.87;101129.38;5047460;28;69945;-38
2023/03/07 06:42:20;;;;;;;;;;;;;;;30.73;47.58;101130.00;5077645;27;65733;-37
2023/03/07 06:44:50;;;;;;;;;;;;;;;30.77;47.76;101124.16;5053161;28;70592;-37
2023/03/07 06:47:21;;;;;;;;;;;;;;;30.80;47.18;101123.75;5057031;27;66351;-38
2023/03/07 06:49:52;;;;;;;;;;;;;;;30.83;47.32;101107.09;5046203;28;68949;-38
2023/03/07 06:52:22;;;;;;;;;;;;;;;30.86;47.33;101112.06;5047768;28;67632;-38
2023/03/07 06:54:53;;;;;;;;;;;;;;;30.89;47.29;101100.81;5061807;27;69395;-39
2023/03/07 06:57:23;;;;;;;;;;;;;;;30.94;47.13;101114.53;5036105;28;65690;-38
2023/03/07 06:59:54;;;;;;;;;;;;;;;30.96;47.16;101098.91;5049324;27;70137;-37
2023/03/07 07:02:26;;;;;;;;;;;;;;;30.99;46.92;101094.94;5051694;28;65355;-37
2023/03/07 07:04:57;;;;;;;;;;;;;;;31.02;46.76;101095.31;5089257;27;69399;-37
2023/03/07 07:07:30;;;;;;;;;;;;;;;31.05;47.13;101089.47;5046847;28;65272;-38
2023/03/07 07:10:00;;;;;;;;;;;;;;;31.09;47.33;101085.31;5048215;27;70363;-38
2023/03/07 07:12:31;;;;;;;;;;;;;;;31.12;46.79;101084.88;5077365;27;65316;-38
2023/03/07 07:15:03;;;;;;;;;;;;;;;31.16;46.92;101083.38;5052087;28;69399;-39
2023/03/07 07:17:34;;;;;;;;;;;;;;;31.21;46.69;101076.47;5046996;27;66016;-38
2023/03/07 07:20:05;;;;;;;;;;;;;;;31.25;46.67;101077.69;5053972;28;69081;-37
2023/03/07 07:22:36;;;;;;;;;;;;;;;31.30;46.65;101069.75;5056695;28;65505;-38
2023/03/07 07:25:06;;;;;;;;;;;;;;;31.32;46.61;101067.66;5045152;28;70075;-39
2023/03/07 07:27:37;;;;;;;;;;;;;;;31.37;46.59;101065.13;5059728;27;66252;-38
2023/03/07 07:30:08;;;;;;;;;;;;;;;31.41;46.32;101055.50;5053116;28;70529;-37
2023/03/07 07:32:38;;;;;;;;;;;;;;;31.44;46.55;101049.66;5044764;27;66915;-38
2023/03/07 07:35:09;;;;;;;;;;;;;;;31.48;46.06;101053.59;5047598;28;70983;-38
2023/03/07 07:37:40;;;;;;;;;;;;;;;31.52;46.20;101046.66;5078876;27;66936;-36
2023/03/07 07:40:12;;;;;;;;;;;;;;;31.54;45.98;101033.72;5057414;27;69851;-38
2023/03/07 07:42:44;;;;;;;;;;;;;;;31.58;45.80;101034.09;5047524;28;66443;-38
2023/03/07 07:45:21;;;;;;;;;;;;;;;31.63;45.74;101036.16;5050917;28;70132;-40
2023/03/07 07:47:52;;;;;;;;;;;;;;;31.65;45.87;101023.19;5043198;28;66215;-39
2023/03/07 07:50:23;;;;;;;;;;;;;;;31.69;45.67;101019.00;5049893;28;70299;-40
2023/03/07 07:52:53;;;;;;;;;;;;;;;31.72;45.64;101013.13;5061607;28;66519;-40
2023/03/07 07:55:25;;;;;;;;;;;;;;;31.75;45.76;101018.09;5071110;27;70208;-38
2023/03/07 07:57:56;;;;;;;;;;;;;;;31.77;45.21;101022.25;5090518;27;65731;-38
2023/03/07 08:00:26;;;;;;;;;;;;;;;31.82;45.53;101013.47;5038215;28;69592;-39
2023/03/07 08:02:57;;;;;;;;;;;;;;;31.86;45.44;101020.06;5051285;28;65907;-39
2023/03/07 08:05:28;;;;;;;;;;;;;;;31.90;45.48;101015.88;5060056;27;69328;-38
2023/03/07 08:07:58;;;;;;;;;;;;;;;31.94;45.46;101017.09;5082602;27;66112;-39
2023/03/07 08:10:28;;;;;;;;;;;;;;;31.97;44.88;101016.66;5048922;28;70924;-38
2023/03/07 08:12:58;;;;;;;;;;;;;;;32.00;44.88;101016.19;5048527;28;66689;-38
2023/03/07 08:15:29;;;;;;;;;;;;;;;32.03;44.93;101026.59;5053961;28;70139;-38
2023/03/07 08:17:59;;;;;;;;;;;;;;;32.07;45.06;101018.00;5044471;27;67097;-38
2023/03/07 08:20:30;;;;;;;;;;;;;;;32.11;45.07;101016.53;5054123;27;70351;-38
2023/03/07 08:23:00;;;;;;;;;;;;;;;32.13;45.00;101014.41;5054939;27;67090;-40
2023/03/07 08:25:31;;;;;;;;;;;;;;;32.16;44.97;101019.38;5050938;28;69887;-39
2023/03/07 08:28:04;;;;;;;;;;;;;;;32.19;45.16;101018.94;5049149;28;65604;-39
2023/03/07 08:30:35;;;;;;;;;;;;;;;32.21;44.99;101011.41;5052617;28;69694;-38
2023/03/07 08:33:06;;;;;;;;;;;;;;;32.24;45.09;101027.22;5048991;27;66496;-37
2023/03/07 08:35:39;;;;;;;;;;;;;;;32.26;45.04;101022.38;5051505;28;69289;-38
2023/03/07 08:38:10;;;;;;;;;;;;;;;32.31;45.09;101022.53;5055004;28;67289;-39
2023/03/07 08:40:40;;;;;;;;;;;;;;;32.33;45.12;101025.03;5046622;27;69761;-37
2023/03/07 08:43:11;;;;;;;;;;;;;;;32.35;45.12;101018.34;5045703;28;66587;-38
2023/03/07 08:45:41;;;;;;;;;;;;;;;32.39;45.08;101019.53;5044381;28;69563;-38
2023/03/07 08:48:11;;;;;;;;;;;;;;;32.41;45.01;101020.13;5046780;28;66434;-37
2023/03/07 08:50:42;;;;;;;;;;;;;;;32.43;45.02;101019.88;5054274;28;69132;-38
2023/03/07 08:53:15;;;;;;;;;;;;;;;32.46;45.00;101022.22;5055256;28;65613;-37
2023/03/07 08:55:45;;;;;;;;;;;;;;;32.48;45.04;101020.06;5052146;28;70815;-38
2023/03/07 08:58:16;;;;;;;;;;;;;;;32.51;44.81;101016.06;5049842;28;65950;-39
2023/03/07 09:00:46;;;;;;;;;;;;;;;32.53;45.03;101024.81;5042973;28;69830;-38
2023/03/07 09:03:17;;;;;;;;;;;;;;;32.56;45.06;101027.09;5058153;27;65146;-38
2023/03/07 09:05:47;;;;;;;;;;;;;;;32.58;45.11;101031.22;5053026;28;69840;-39
2023/03/07 09:08:17;;;;;;;;;;;;;;;32.60;44.81;101040.00;5054911;28;67383;-38
2023/03/07 09:10:47;;;;;;;;;;;;;;;32.64;44.76;101037.63;5060134;27;70092;-38
2023/03/07 09:13:19;;;;;;;;;;;;;;;32.65;44.87;101039.28;5049455;28;65977;-38
2023/03/07 09:15:49;;;;;;;;;;;;;;;32.54;45.26;101042.78;5041799;28;69204;-38
2023/03/07 09:18:21;;;;;;;;;;;;;;;32.36;45.92;101047.13;5052731;28;65601;-40
2023/03/07 09:20:52;;;;;;;;;;;;;;;32.22;46.48;101040.19;5050500;28;70137;-40
2023/03/07 09:23:22;;;;;;;;;;;;;;;32.10;46.74;101039.28;5055787;28;65896;-40
2023/03/07 09:25:52;;;;;;;;;;;;;;;32.05;47.23;101050.81;5049537;28;70261;-39
2023/03/07 09:28:22;;;;;;;;;;;;;;;32.01;47.47;101045.00;5049928;28;67058;-39
2023/03/07 09:30:53;;;;;;;;;;;;;;;31.99;47.91;101052.53;5055172;27;70395;-39
2023/03/07 09:33:24;;;;;;;;;;;;;;;31.96;48.59;101058.41;5045045;28;65582;-40
2023/03/07 09:35:54;;;;;;;;;;;;;;;31.72;48.66;101018.53;5043806;28;70156;-38
2023/03/07 09:38:25;;;;;;;;;;;;;;;31.95;48.84;101045.88;5042866;28;67536;-39
2023/03/07 09:41:00;;;;;;;;;;;;;;;31.92;49.13;101057.19;5055985;28;69533;-40
2023/03/07 09:43:41;;;;;;;;;;;;;;;31.93;49.08;101053.44;5049717;28;65977;-39
2023/03/07 09:46:45;;;;;;;;;;;;;;;31.89;49.16;101049.47;5050095;27;70124;-40
2023/03/07 09:49:18;;;;;;;;;;;;;;;31.89;49.22;101054.88;5078882;27;66120;-40
2023/03/07 09:51:51;;;;;;;;;;;;;;;31.88;49.42;101050.53;5049312;28;70298;-39
2023/03/07 09:54:23;;;;;;;;;;;;;;;31.89;49.30;101054.88;5055915;27;66183;-39
2023/03/07 09:56:57;;;;;;;;;;;;;;;31.87;49.34;101059.69;5047155;28;69808;-40
2023/03/07 09:59:37;;;;;;;;;;;;;;;31.88;49.16;101058.66;5048061;28;65875;-38
2023/03/07 10:02:17;;;;;;;;;;;;;;;31.86;49.37;101063.47;5043781;28;70312;-39
2023/03/07 10:04:51;;;;;;;;;;;;;;;31.85;49.60;101067.25;5051123;28;67067;-39
2023/03/07 10:07:23;;;;;;;;;;;;;;;31.86;49.37;101063.47;5043063;28;69524;-40
2023/03/07 10:09:59;;;;;;;;;;;;;;;31.83;49.74;101062.03;5048142;28;65546;-38
2023/03/07 10:12:45;;;;;;;;;;;;;;;31.84;49.43;101060.16;5048589;28;70728;-41
2023/03/07 10:15:27;;;;;;;;;;;;;;;31.83;49.44;101064.75;5046295;28;66327;-40
2023/03/07 10:18:15;;;;;;;;;;;;;;;31.82;49.37;101056.84;5050011;27;70393;-40
2023/03/07 10:21:01;;;;;;;;;;;;;;;31.81;49.46;101071.44;5042676;28;65230;-39
2023/03/07 10:23:31;;;;;;;;;;;;;;;31.75;49.72;101072.34;5044774;28;70473;-39
2023/03/07 10:26:15;;;;;;;;;;;;;;;31.74;49.79;101079.66;5047071;28;65613;-38
2023/03/07 10:28:47;;;;;;;;;;;;;;;31.73;49.85;101090.72;5057431;28;70302;-39
2023/03/07 10:31:21;;;;;;;;;;;;;;;31.68;49.84;101090.53;5047429;28;66169;-39
2023/03/07 10:33:53;;;;;;;;;;;;;;;31.67;49.94;101091.59;5045580;28;70656;-39
2023/03/07 10:36:35;;;;;;;;;;;;;;;31.67;49.59;101107.88;5036375;28;66529;-38
2023/03/07 10:39:45;;;;;;;;;;;;;;;31.64;49.76;101086.63;5047547;28;69768;-38
2023/03/07 10:42:16;;;;;;;;;;;;;;;31.61;49.97;101093.31;5053590;28;65617;-39
2023/03/07 10:44:47;;;;;;;;;;;;;;;31.58;49.86;101096.47;5057184;28;70184;-37
2023/03/07 10:47:22;;;;;;;;;;;;;;;31.54;50.38;101098.78;5056644;28;66406;-38
2023/03/07 10:50:25;;;;;;;;;;;;;;;31.52;49.94;101098.19;5048233;28;71063;-38
2023/03/07 10:52:57;;;;;;;;;;;;;;;31.52;50.62;101111.72;5047629;28;66523;-40
2023/03/07 10:55:33;;;;;;;;;;;;;;;31.60;50.42;101114.19;5050000;28;69751;-40
2023/03/07 10:58:14;;;;;;;;;;;;;;;31.77;49.90;101110.94;5060098;27;66277;-40
2023/03/07 11:00:46;;;;;;;;;;;;;;;31.91;49.36;101109.78;5060586;28;70380;-38
2023/03/07 11:03:34;;;;;;;;;;;;;;;31.98;48.95;101118.72;5049661;28;66586;-38
2023/03/07 11:06:25;;;;;;;;;;;;;;;32.05;48.85;101115.94;5050759;28;70740;-38
2023/03/07 11:08:56;;;;;;;;;;;;;;;32.11;48.50;101116.94;5045096;27;66694;-39
2023/03/07 11:11:31;;;;;;;;;;;;;;;32.12;48.53;101113.16;5058205;28;70548;-39
2023/03/07 11:14:09;;;;;;;;;;;;;;;32.15;48.27;101118.13;5046157;28;66503;-38
2023/03/07 11:16:43;;;;;;;;;;;;;;;32.18;48.14;101125.81;5054420;28;70851;-38
2023/03/07 11:19:28;;;;;;;;;;;;;;;32.19;48.13;101139.19;5060738;28;66841;-37
2023/03/07 11:22:02;;;;;;;;;;;;;;;32.19;48.05;101138.34;5051947;28;69840;-37
2023/03/07 11:24:46;;;;;;;;;;;;;;;32.20;48.40;101145.44;5046386;28;66279;-38
2023/03/07 11:27:24;;;;;;;;;;;;;;;32.19;48.29;101143.78;5048999;27;70561;-46
2023/03/07 11:30:06;;;;;;;;;;;;;;;32.19;48.29;101149.22;5050434;27;65972;-38
2023/03/07 11:32:39;;;;;;;;;;;;;;;32.19;48.08;101143.78;5053045;27;70560;-38
2023/03/07 11:35:19;;;;;;;;;;;;;;;32.17;48.48;101152.13;5051990;28;65115;-39
2023/03/07 11:38:00;;;;;;;;;;;;;;;32.15;48.39;101154.25;5056518;28;69803;-38
2023/03/07 11:40:41;;;;;;;;;;;;;;;32.15;48.33;101153.41;5052325;28;65306;-38
2023/03/07 11:43:23;;;;;;;;;;;;;;;32.13;48.40;101160.97;5045178;28;69680;-40
2023/03/07 11:46:02;;;;;;;;;;;;;;;32.12;48.69;101151.97;5053221;28;66150;-43
2023/03/07 11:48:44;;;;;;;;;;;;;;;32.10;48.69;101162.25;5051928;28;70613;-38
2023/03/07 11:51:56;;;;;;;;;;;;;;;32.11;48.59;101163.06;5054204;27;66003;-38
2023/03/07 11:54:33;;;;;;;;;;;;;;;32.08;48.79;101164.34;5056757;28;69903;-39
2023/03/07 11:57:26;;;;;;;;;;;;;;;32.07;48.96;101161.84;5053115;28;67100;-38
2023/03/07 12:00:00;;;;;;;;;;;;;;;32.04;48.89;101166.66;5049470;28;70843;-39
2023/03/07 12:02:51;;;;;;;;;;;;;;;32.02;49.15;101166.06;5042720;28;65606;-38
2023/03/07 12:05:40;;;;;;;;;;;;;;;32.00;49.00;101170.88;5047311;27;70595;-38
2023/03/07 12:08:25;;;;;;;;;;;;;;;31.99;49.23;101169.22;5046104;28;66370;-39
2023/03/07 12:11:01;;;;;;;;;;;;;;;31.98;49.06;101175.69;5052713;27;69450;-38
2023/03/07 12:13:39;;;;;;;;;;;;;;;31.96;48.99;101188.66;5046503;28;66522;-38
2023/03/07 12:16:25;;;;;;;;;;;;;;;31.95;49.39;101183.44;5047892;27;69346;-39
2023/03/07 12:18:59;;;;;;;;;;;;;;;31.92;49.21;101192.84;5047772;28;66578;-38
2023/03/07 12:21:38;;;;;;;;;;;;;;;31.91;49.28;101183.06;5047969;27;69883;-39
2023/03/07 12:24:19;;;;;;;;;;;;;;;31.89;49.38;101195.97;5048872;28;66444;-38
2023/03/07 12:26:58;;;;;;;;;;;;;;;31.87;49.47;101189.91;5043055;28;69400;-38
2023/03/07 12:29:45;;;;;;;;;;;;;;;31.85;49.41;101194.75;5053339;28;66297;-38
2023/03/07 12:32:18;;;;;;;;;;;;;;;31.85;49.74;101208.31;5081835;27;69872;-38
2023/03/07 12:35:05;;;;;;;;;;;;;;;31.83;49.63;101211.25;5047484;28;65617;-38
2023/03/07 12:37:48;;;;;;;;;;;;;;;31.80;49.33;101211.69;5045157;28;70027;-38
2023/03/07 12:40:20;;;;;;;;;;;;;;;31.79;49.48;101217.34;5052677;27;64905;-38
2023/03/07 12:42:55;;;;;;;;;;;;;;;31.78;49.55;101223.78;5055273;28;70651;-40
2023/03/07 12:45:35;;;;;;;;;;;;;;;31.77;49.42;101227.56;5055373;28;66558;-38
2023/03/07 12:48:23;;;;;;;;;;;;;;;31.75;49.95;101229.66;5057643;27;70612;-38
2023/03/07 12:50:59;;;;;;;;;;;;;;;31.73;49.50;101231.75;5054660;28;66007;-37
2023/03/07 12:53:39;;;;;;;;;;;;;;;31.71;50.00;101225.72;5049662;28;70634;-38
2023/03/07 12:56:21;;;;;;;;;;;;;;;31.69;49.85;101236.78;5051905;28;67089;-37
2023/03/07 12:58:55;;;;;;;;;;;;;;;31.68;50.11;101232.41;5079356;27;69151;-38
2023/03/07 13:01:27;;;;;;;;;;;;;;;31.67;50.10;101238.03;5047461;28;65598;-38
2023/03/07 13:04:03;;;;;;;;;;;;;;;31.66;50.43;101244.53;5045638;27;70505;-39
2023/03/07 13:06:37;;;;;;;;;;;;;;;31.66;50.43;101250.78;5051005;28;66895;-40
2023/03/07 13:09:13;;;;;;;;;;;;;;;31.63;50.56;101242.25;5052967;28;69978;-38